Amherst, Colorado
Current Conditions -  °F | °C
As of 3:35 PM on Monday 24 Nov 2014 (Local Time) from KHEQ Reporting Station
Clear Clear  
Wind Chill: 27°   Ceiling: Unl
Heat Index: 37°   Visibility: 10mi
Dew Point: 28°   Wind: 21mph
Humidity: 70%   Direction: 320°NW
Pressure: 30.03"   Gusts: 26mph
Location:  40.68°N, 102.17°W
Report Text: KHEQ 242235Z AUTO 32018G23KT 10SM CLR 03/M02 A3003 RMK AO2
Loading
Personal Weather Stations






























Interactive Weather Map New forecast layout! Learn more

10-Day Weather Forecast

Advertisements
Track Severe Weather on mobile